Time;durP1;ratioP1;P1;durP2;ratioP2;P2;SDS_P1;SDS_P2;PMS_P1;PMS_P2;Temp;Humidity;BMP_temperature;BMP_pressure;BME280_temperature;BME280_humidity;BME280_pressure;Samples;Min_cycle;Max_cycle;Signal;HPM_P1;HPM_P2
2022/09/13 00:01:22;;;;;;;6.97;5.30;;;;;;;16.37;100.00;98662.19;5084431;28;20245;-81
2022/09/13 00:03:54;;;;;;;7.60;5.40;;;;;;;16.42;100.00;98659.09;5008977;28;20190;-81
2022/09/13 00:06:23;;;;;;;7.40;5.13;;;;;;;16.34;100.00;98672.34;5003172;28;20195;-81
2022/09/13 00:08:52;;;;;;;7.97;5.30;;;;;;;16.42;100.00;98661.78;5000950;28;20314;-81
2022/09/13 00:11:23;;;;;;;6.37;5.40;;;;;;;16.27;100.00;98667.59;5005140;28;20202;-81
2022/09/13 00:13:54;;;;;;;6.80;5.47;;;;;;;16.24;100.00;98659.03;5007448;28;20221;-81
2022/09/13 00:16:25;;;;;;;7.83;5.73;;;;;;;16.16;100.00;98649.06;5000797;28;20662;-81
2022/09/13 00:18:56;;;;;;;11.37;6.27;;;;;;;16.21;100.00;98641.47;5007669;28;20276;-81
2022/09/13 00:21:26;;;;;;;6.97;6.13;;;;;;;16.00;100.00;98643.47;5024293;28;20195;-81
2022/09/13 00:23:55;;;;;;;8.60;5.63;;;;;;;16.02;100.00;98650.38;5093240;28;20684;-82
2022/09/13 00:26:25;;;;;;;6.60;5.83;;;;;;;16.12;100.00;98646.84;5093290;28;20187;-81
2022/09/13 00:28:58;;;;;;;7.00;5.53;;;;;;;16.17;100.00;98649.91;5036954;28;20219;-81
2022/09/13 00:31:28;;;;;;;8.90;5.90;;;;;;;16.14;100.00;98637.69;5085131;28;20199;-82
2022/09/13 00:33:58;;;;;;;7.67;5.60;;;;;;;16.05;100.00;98627.88;5088900;28;20194;-81
2022/09/13 00:36:27;;;;;;;5.30;4.80;;;;;;;16.16;100.00;98632.19;5086057;28;20199;-81
2022/09/13 00:38:55;;;;;;;6.73;5.37;;;;;;;16.04;100.00;98623.53;5090406;28;20268;-81
2022/09/13 00:41:24;;;;;;;6.30;4.93;;;;;;;16.04;100.00;98610.16;5033105;28;20233;-81
2022/09/13 00:43:57;;;;;;;6.60;5.90;;;;;;;16.19;100.00;98599.81;5024760;28;20300;-81
2022/09/13 00:46:32;;;;;;;7.13;5.63;;;;;;;16.47;100.00;98589.97;5034790;28;20193;-82
2022/09/13 00:49:11;;;;;;;6.77;5.70;;;;;;;16.18;100.00;98569.59;5028699;28;20699;-81
2022/09/13 00:51:43;;;;;;;8.33;5.83;;;;;;;16.11;100.00;98578.34;5027407;28;20280;-81
2022/09/13 00:54:15;;;;;;;6.27;5.67;;;;;;;16.03;100.00;98576.44;5027592;28;20253;-81
2022/09/13 00:56:48;;;;;;;8.80;6.30;;;;;;;16.15;100.00;98569.91;5026636;28;20232;-81
2022/09/13 00:59:23;;;;;;;8.43;5.63;;;;;;;15.77;100.00;98586.06;5050361;28;20272;-81
2022/09/13 01:01:55;;;;;;;5.83;5.30;;;;;;;15.76;100.00;98595.91;5061833;28;20195;-81
2022/09/13 01:04:26;;;;;;;6.60;5.90;;;;;;;15.80;100.00;98599.13;5088660;28;20206;-81
2022/09/13 01:06:59;;;;;;;7.17;6.07;;;;;;;15.73;100.00;98602.41;5093756;28;20650;-81
2022/09/13 01:09:28;;;;;;;8.93;6.33;;;;;;;15.63;100.00;98590.91;5089230;28;20200;-82
2022/09/13 01:12:03;;;;;;;7.03;5.50;;;;;;;15.58;100.00;98600.28;5093508;28;20187;-81
2022/09/13 01:14:34;;;;;;;7.47;5.77;;;;;;;15.41;100.00;98586.66;5088924;28;20214;-81
2022/09/13 01:17:03;;;;;;;7.03;5.70;;;;;;;15.41;100.00;98588.50;5096433;28;20192;-81
2022/09/13 01:19:32;;;;;;;7.90;5.90;;;;;;;15.52;100.00;98592.84;5093980;28;20682;-81
2022/09/13 01:22:21;;;;;;;6.87;6.10;;;;;;;15.36;100.00;98588.09;5090849;28;20341;-81
2022/09/13 01:25:15;;;;;;;6.67;6.03;;;;;;;15.38;100.00;98589.63;5089719;28;20678;-81
2022/09/13 01:28:08;;;;;;;7.20;5.80;;;;;;;15.42;100.00;98587.50;5083637;28;20196;-81
2022/09/13 01:30:44;;;;;;;8.10;5.57;;;;;;;15.49;100.00;98588.63;5096400;28;20313;-81
2022/09/13 01:33:44;;;;;;;8.63;6.33;;;;;;;15.43;100.00;98589.19;5096408;28;20187;-81
2022/09/13 01:36:39;;;;;;;8.03;6.77;;;;;;;15.39;100.00;98585.97;5089189;28;20196;-81
2022/09/13 01:39:14;;;;;;;8.97;6.47;;;;;;;15.61;100.00;98573.31;5087079;28;20292;-81
2022/09/13 01:42:00;;;;;;;7.93;6.10;;;;;;;15.69;100.00;98571.59;5093601;28;20642;-81
2022/09/13 01:44:41;;;;;;;6.73;5.63;;;;;;;15.60;100.00;98568.94;5086629;28;20226;-81
2022/09/13 01:47:24;;;;;;;7.77;6.07;;;;;;;15.34;100.00;98574.88;5086522;28;20204;-81
2022/09/13 01:50:06;;;;;;;7.17;5.90;;;;;;;15.33;100.00;98586.53;5088971;28;20203;-81
2022/09/13 01:52:42;;;;;;;7.77;6.30;;;;;;;15.17;100.00;98596.97;5088675;28;20195;-81
2022/09/13 01:55:22;;;;;;;7.83;6.37;;;;;;;15.13;100.00;98575.03;5086009;28;20711;-81
2022/09/13 01:57:57;;;;;;;6.70;5.93;;;;;;;15.00;100.00;98576.31;5083517;28;20204;-81
2022/09/13 02:00:29;;;;;;;11.37;6.80;;;;;;;14.99;100.00;98566.63;5090608;28;20215;-82
2022/09/13 02:03:05;;;;;;;7.23;6.17;;;;;;;15.24;100.00;98559.84;5092707;28;20225;-81
2022/09/13 02:05:40;;;;;;;6.90;6.20;;;;;;;15.20;100.00;98561.97;5045136;28;20193;-81
2022/09/13 02:08:13;;;;;;;7.83;5.70;;;;;;;15.05;100.00;98572.22;5049747;28;20258;-82
2022/09/13 02:10:45;;;;;;;7.20;6.00;;;;;;;15.22;100.00;98560.00;5043355;28;20197;-81
2022/09/13 02:13:22;;;;;;;7.17;6.13;;;;;;;15.19;100.00;98562.97;5046626;28;20243;-82
2022/09/13 02:15:54;;;;;;;8.87;6.43;;;;;;;14.87;100.00;98566.78;5050761;28;20228;-82
2022/09/13 02:18:32;;;;;;;7.73;6.23;;;;;;;14.76;100.00;98576.72;5046161;28;20225;-81
2022/09/13 02:21:07;;;;;;;7.30;6.10;;;;;;;14.66;100.00;98582.03;5050180;28;20192;-81
2022/09/13 02:23:41;;;;;;;8.40;6.30;;;;;;;14.67;100.00;98589.06;5066504;28;20244;-81
2022/09/13 02:26:12;;;;;;;7.53;6.43;;;;;;;14.81;100.00;98601.97;5084774;28;20210;-81
2022/09/13 02:28:47;;;;;;;8.03;6.93;;;;;;;14.91;100.00;98586.00;5087194;28;20219;-81
2022/09/13 02:31:24;;;;;;;8.60;6.23;;;;;;;14.88;100.00;98584.47;5084067;28;20194;-81
2022/09/13 02:33:59;;;;;;;7.47;6.67;;;;;;;14.85;100.00;98579.38;5092800;28;20187;-81
2022/09/13 02:36:32;;;;;;;9.43;6.70;;;;;;;14.99;100.00;98579.97;5089599;28;20260;-82
2022/09/13 02:39:05;;;;;;;7.60;6.43;;;;;;;14.76;100.00;98574.88;5089089;28;20219;-82
2022/09/13 02:41:47;;;;;;;8.43;7.00;;;;;;;14.69;100.00;98576.44;5084923;28;20231;-82
2022/09/13 02:44:25;;;;;;;7.67;6.33;;;;;;;14.75;100.00;98578.53;5084919;28;20268;-83
2022/09/13 02:47:06;;;;;;;9.37;6.10;;;;;;;14.80;100.00;98584.31;5087448;28;20188;-81
2022/09/13 02:49:50;;;;;;;7.40;6.63;;;;;;;14.67;100.00;98585.53;5088225;28;20278;-81
2022/09/13 02:52:26;;;;;;;7.80;6.20;;;;;;;14.73;100.00;98585.00;5090420;28;20238;-82
2022/09/13 02:55:05;;;;;;;7.60;5.90;;;;;;;14.94;100.00;98593.72;5050533;28;20197;-82
2022/09/13 02:57:39;;;;;;;7.23;6.20;;;;;;;14.98;100.00;98594.28;5004299;28;20227;-81
2022/09/13 03:00:09;;;;;;;8.17;6.53;;;;;;;14.98;100.00;98596.97;5076765;28;20219;-81
2022/09/13 03:02:41;;;;;;;7.23;6.50;;;;;;;14.91;100.00;98595.81;5049246;28;20683;-81
2022/09/13 03:05:12;;;;;;;7.93;6.67;;;;;;;14.90;100.00;98589.66;5048861;28;20189;-81
2022/09/13 03:07:40;;;;;;;7.87;6.40;;;;;;;14.73;100.00;98591.16;5052170;28;20204;-81
2022/09/13 03:10:13;;;;;;;7.77;6.07;;;;;;;14.75;100.00;98583.03;5037288;28;20194;-82
2022/09/13 03:13:13;;;;;;;8.87;7.20;;;;;;;14.64;100.00;98593.81;5063249;28;20191;-81
2022/09/13 03:15:58;;;;;;;8.17;6.60;;;;;;;14.72;100.00;98596.63;4981944;28;20227;-82
2022/09/13 03:18:48;;;;;;;7.77;6.60;;;;;;;14.80;100.00;98596.78;4984092;28;20212;-82
2022/09/13 03:21:35;;;;;;;9.00;6.67;;;;;;;14.88;100.00;98604.94;4914472;29;20210;-82
2022/09/13 03:24:15;;;;;;;10.27;7.10;;;;;;;14.80;100.00;98594.13;4911882;29;20261;-82
2022/09/13 03:26:54;;;;;;;11.17;7.50;;;;;;;14.93;100.00;98586.69;4909647;29;20190;-81
2022/09/13 03:29:32;;;;;;;8.63;6.93;;;;;;;14.99;100.00;98579.97;4910530;29;20197;-82
2022/09/13 03:32:19;;;;;;;13.77;7.63;;;;;;;15.03;100.00;98581.34;4906980;29;20224;-82
2022/09/13 03:34:55;;;;;;;9.03;7.50;;;;;;;15.08;100.00;98579.97;5001868;28;20199;-82
2022/09/13 03:37:32;;;;;;;9.50;7.03;;;;;;;15.16;100.00;98580.09;5005909;28;20248;-82
2022/09/13 03:40:08;;;;;;;9.10;7.27;;;;;;;15.06;100.00;98581.09;5065282;28;20227;-82
2022/09/13 03:42:43;;;;;;;9.10;6.53;;;;;;;15.13;100.00;98568.88;5088397;28;20233;-82
2022/09/13 03:45:16;;;;;;;9.57;7.10;;;;;;;15.25;100.00;98573.09;5040531;28;20197;-82
2022/09/13 03:47:46;;;;;;;9.57;6.90;;;;;;;15.06;100.00;98571.28;5047131;28;20197;-82
2022/09/13 03:50:23;;;;;;;7.43;6.13;;;;;;;15.20;100.00;98570.00;5045951;28;20220;-82
2022/09/13 03:52:58;;;;;;;7.10;5.90;;;;;;;15.21;100.00;98561.00;5043348;28;20204;-82
2022/09/13 03:55:28;;;;;;;7.10;6.10;;;;;;;15.30;100.00;98568.16;5045985;28;20191;-83
2022/09/13 03:57:56;;;;;;;6.97;5.77;;;;;;;15.35;100.00;98563.25;5046432;28;20270;-82
2022/09/13 04:00:24;;;;;;;7.70;5.97;;;;;;;15.27;100.00;98571.13;5043819;28;20240;-83
2022/09/13 04:02:54;;;;;;;7.40;6.60;;;;;;;15.24;100.00;98575.88;5059190;28;20195;-82
2022/09/13 04:05:22;;;;;;;7.23;6.20;;;;;;;15.12;100.00;98570.69;5093411;28;20317;-82
2022/09/13 04:07:52;;;;;;;8.23;6.07;;;;;;;15.35;100.00;98570.41;5085817;28;20199;-82
2022/09/13 04:10:23;;;;;;;7.47;6.20;;;;;;;15.42;100.00;98577.66;5083376;28;20219;-82
2022/09/13 04:12:52;;;;;;;9.33;7.07;;;;;;;15.24;100.00;98566.03;5087034;28;20191;-82
2022/09/13 04:15:24;;;;;;;6.97;6.17;;;;;;;15.28;100.00;98559.44;5086731;28;20218;-82
2022/09/13 04:17:53;;;;;;;8.10;7.13;;;;;;;15.25;100.00;98570.41;5087679;28;20192;-82
2022/09/13 04:20:21;;;;;;;10.23;7.50;;;;;;;15.30;100.00;98564.63;5093100;28;20215;-82
2022/09/13 04:22:57;;;;;;;9.93;6.73;;;;;;;15.19;100.00;98576.31;5086402;28;20208;-82
2022/09/13 04:25:27;;;;;;;10.23;7.33;;;;;;;15.28;100.00;98575.47;5078465;28;20276;-82
2022/09/13 04:27:58;;;;;;;7.87;6.37;;;;;;;15.21;100.00;98570.81;5077953;28;20195;-83
2022/09/13 04:30:28;;;;;;;9.10;6.83;;;;;;;15.21;100.00;98561.00;5088050;28;20223;-82
2022/09/13 04:32:58;;;;;;;9.50;7.20;;;;;;;15.08;100.00;98563.97;5084586;28;20245;-81
2022/09/13 04:35:27;;;;;;;11.10;7.13;;;;;;;15.11;100.00;98565.50;5086681;28;20670;-82
2022/09/13 04:37:57;;;;;;;9.10;6.70;;;;;;;15.01;100.00;98567.34;5084975;28;20651;-82
2022/09/13 04:40:26;;;;;;;11.50;7.80;;;;;;;14.87;100.00;98566.78;5085616;28;20221;-81
2022/09/13 04:42:54;;;;;;;8.73;6.80;;;;;;;15.00;100.00;98557.66;5087390;28;20227;-82
2022/09/13 04:45:22;;;;;;;11.23;7.20;;;;;;;15.09;100.00;98570.97;5047888;28;20197;-82
2022/09/13 04:47:52;;;;;;;9.83;6.87;;;;;;;15.08;100.00;98561.31;5039195;28;20243;-82
2022/09/13 04:50:21;;;;;;;9.10;7.37;;;;;;;15.10;100.00;98571.81;5050822;28;20197;-82
2022/09/13 04:52:57;;;;;;;8.50;7.13;;;;;;;15.17;100.00;98570.28;5044097;28;20270;-82
2022/09/13 04:55:27;;;;;;;9.83;7.43;;;;;;;15.23;100.00;98568.84;5043776;28;20216;-82
2022/09/13 04:57:56;;;;;;;9.00;6.97;;;;;;;15.24;100.00;98568.72;5044294;28;20236;-82
2022/09/13 05:00:25;;;;;;;10.33;7.37;;;;;;;15.20;100.00;98567.31;5048809;28;20313;-82
2022/09/13 05:02:56;;;;;;;9.27;7.30;;;;;;;15.13;100.00;98566.19;5049148;28;20223;-82
2022/09/13 05:05:27;;;;;;;8.33;7.30;;;;;;;15.32;100.00;98570.66;5084988;28;20212;-82
2022/09/13 05:07:56;;;;;;;8.30;6.70;;;;;;;15.30;100.00;98570.81;5085567;28;20192;-82
2022/09/13 05:10:27;;;;;;;8.40;7.50;;;;;;;15.25;100.00;98566.88;5088773;28;20309;-82
2022/09/13 05:13:00;;;;;;;8.77;7.43;;;;;;;15.26;100.00;98571.25;5085212;28;20188;-81
2022/09/13 05:15:29;;;;;;;8.17;6.73;;;;;;;15.34;100.00;98568.69;5087176;28;20207;-82
2022/09/13 05:17:57;;;;;;;10.83;8.00;;;;;;;15.23;100.00;98561.69;5077116;28;20203;-82
2022/09/13 05:20:25;;;;;;;9.03;7.23;;;;;;;15.42;100.00;98575.00;5085129;28;20247;-81
2022/09/13 05:22:55;;;;;;;9.83;7.20;;;;;;;15.51;100.00;98575.13;5089348;28;20199;-82
2022/09/13 05:25:24;;;;;;;9.37;7.03;;;;;;;15.56;100.00;98575.56;5092269;28;20245;-82
2022/09/13 05:27:54;;;;;;;8.43;6.97;;;;;;;15.51;100.00;98567.97;5029920;28;20260;-82
2022/09/13 05:30:23;;;;;;;9.03;6.73;;;;;;;15.52;100.00;98568.81;5027852;28;20197;-82
2022/09/13 05:32:51;;;;;;;10.73;7.40;;;;;;;15.59;100.00;98576.09;5032349;28;20263;-81
2022/09/13 05:35:19;;;;;;;9.37;7.07;;;;;;;15.61;100.00;98574.16;5024961;28;20190;-82
2022/09/13 05:37:50;;;;;;;10.07;7.37;;;;;;;15.62;100.00;98569.66;5027609;28;20205;-82
2022/09/13 05:40:19;;;;;;;11.73;6.90;;;;;;;15.58;100.00;98574.41;4996659;28;20236;-82
2022/09/13 05:42:47;;;;;;;9.90;6.83;;;;;;;15.37;100.00;98574.59;5023463;28;20216;-82
2022/09/13 05:45:19;;;;;;;9.30;6.77;;;;;;;15.45;100.00;98571.22;5036799;28;20719;-81
2022/09/13 05:47:51;;;;;;;11.70;7.57;;;;;;;15.49;100.00;98579.78;5039903;28;20199;-81
2022/09/13 05:50:20;;;;;;;8.97;7.27;;;;;;;15.55;100.00;98573.88;5095772;28;20188;-82
2022/09/13 05:53:09;;;;;;;8.07;6.90;;;;;;;15.66;100.00;98574.56;5095983;28;20295;-81
2022/09/13 05:55:37;;;;;;;10.00;7.53;;;;;;;15.77;100.00;98567.38;5092755;28;20191;-81
2022/09/13 05:58:06;;;;;;;9.67;7.27;;;;;;;15.96;100.00;98572.66;5088211;28;20194;-81
2022/09/13 06:00:36;;;;;;;11.97;7.67;;;;;;;16.05;100.00;98568.25;5089606;28;20215;-81
2022/09/13 06:03:05;;;;;;;8.87;7.30;;;;;;;16.08;100.00;98573.31;5092758;28;20188;-82
2022/09/13 06:05:34;;;;;;;9.00;6.93;;;;;;;16.03;100.00;98576.44;5091502;28;20203;-81
2022/09/13 06:08:03;;;;;;;10.20;7.60;;;;;;;16.10;100.00;98576.66;5092905;28;20203;-80
2022/09/13 06:10:32;;;;;;;10.93;7.90;;;;;;;16.08;100.00;98584.81;5089700;28;20237;-81
2022/09/13 06:13:01;;;;;;;8.40;7.20;;;;;;;16.24;100.00;98586.88;5091514;28;20203;-82
2022/09/13 06:15:30;;;;;;;9.80;7.60;;;;;;;16.31;100.00;98594.16;5090924;28;20183;-81
2022/09/13 06:18:00;;;;;;;10.53;8.00;;;;;;;16.27;100.00;98597.25;5085492;28;20188;-81
2022/09/13 06:20:28;;;;;;;9.00;8.00;;;;;;;16.29;100.00;98603.28;5087465;28;20195;-81
2022/09/13 06:22:56;;;;;;;10.70;8.27;;;;;;;16.36;100.00;98606.22;5084870;28;20227;-82
2022/09/13 06:25:24;;;;;;;9.13;8.10;;;;;;;16.49;100.00;98604.88;5087912;28;20188;-82
2022/09/13 06:27:53;;;;;;;11.43;8.60;;;;;;;16.42;100.00;98602.97;5082944;28;20233;-81
2022/09/13 06:30:22;;;;;;;9.70;8.47;;;;;;;16.47;100.00;98603.34;5088396;28;20227;-81
2022/09/13 06:32:52;;;;;;;11.57;8.40;;;;;;;16.43;100.00;98601.97;5091145;28;20195;-82
2022/09/13 06:35:22;;;;;;;9.70;8.53;;;;;;;16.59;100.00;98600.31;5089606;28;20198;-82
2022/09/13 06:37:57;;;;;;;10.40;8.80;;;;;;;16.27;100.00;98608.78;5085349;28;20195;-81
2022/09/13 06:40:26;;;;;;;10.17;8.93;;;;;;;16.37;100.00;98606.06;5091765;28;20229;-81
2022/09/13 06:42:54;;;;;;;11.10;8.57;;;;;;;16.27;100.00;98614.13;5086951;28;20231;-82
2022/09/13 06:45:24;;;;;;;12.00;8.07;;;;;;;16.18;100.00;98619.53;5091020;28;20184;-82
2022/09/13 06:47:54;;;;;;;11.27;8.07;;;;;;;16.34;100.00;98616.22;5083105;28;20203;-82
2022/09/13 06:50:24;;;;;;;10.10;7.00;;;;;;;16.56;100.00;98613.16;5087231;28;20251;-81
2022/09/13 06:52:53;;;;;;;7.67;6.83;;;;;;;16.81;100.00;98617.81;5091530;28;20212;-81
2022/09/13 06:55:21;;;;;;;7.67;6.87;;;;;;;16.80;100.00;98616.16;5088075;28;20727;-81
2022/09/13 06:57:49;;;;;;;7.63;6.77;;;;;;;16.84;100.00;98614.84;5085195;28;20208;-81
2022/09/13 07:00:18;;;;;;;9.27;7.00;;;;;;;16.85;100.00;98613.00;5089723;28;20323;-81
2022/09/13 07:02:51;;;;;;;7.43;6.73;;;;;;;16.83;100.00;98621.19;5088827;28;20219;-81
2022/09/13 07:05:20;;;;;;;8.10;7.30;;;;;;;16.83;100.00;98613.16;5091355;28;20227;-81
2022/09/13 07:07:50;;;;;;;8.07;7.23;;;;;;;16.77;100.00;98604.88;5043105;28;20647;-81
2022/09/13 07:10:18;;;;;;;8.93;7.83;;;;;;;16.73;100.00;98611.53;5094510;28;20191;-82
2022/09/13 07:12:50;;;;;;;8.53;7.30;;;;;;;16.63;100.00;98610.72;5085932;28;20199;-81
2022/09/13 07:15:18;;;;;;;8.80;7.47;;;;;;;16.66;100.00;98602.41;5026957;28;20197;-81
2022/09/13 07:17:47;;;;;;;9.33;7.10;;;;;;;16.74;100.00;98591.81;5025392;28;20198;-81
2022/09/13 07:20:16;;;;;;;8.97;7.33;;;;;;;16.64;100.00;98593.69;5022686;28;20237;-81
2022/09/13 07:22:44;;;;;;;10.43;7.57;;;;;;;16.69;100.00;98592.25;4968803;28;20216;-81
2022/09/13 07:25:14;;;;;;;13.17;8.27;;;;;;;16.62;100.00;98579.63;4969481;28;20223;-81
2022/09/13 07:27:43;;;;;;;10.27;8.20;;;;;;;16.63;100.00;98579.47;4969484;28;20223;-81
2022/09/13 07:30:12;;;;;;;10.37;8.10;;;;;;;16.59;100.00;98578.09;4966153;28;20227;-81
2022/09/13 07:32:41;;;;;;;9.90;7.97;;;;;;;16.56;100.00;98589.09;4873850;29;20683;-81
2022/09/13 07:35:09;;;;;;;10.33;8.67;;;;;;;16.44;100.00;98587.63;4874632;29;20211;-81
2022/09/13 07:37:38;;;;;;;11.23;8.60;;;;;;;16.58;100.00;98581.75;4872240;29;20195;-81
2022/09/13 07:40:09;;;;;;;11.17;8.60;;;;;;;16.36;100.00;98588.34;4903084;28;20235;-81
2022/09/13 07:42:39;;;;;;;11.37;8.93;;;;;;;16.40;100.00;98594.22;4963714;28;20320;-81
2022/09/13 07:45:11;;;;;;;10.20;8.20;;;;;;;16.45;100.00;98598.16;4966260;28;20235;-81
2022/09/13 07:47:40;;;;;;;9.20;8.17;;;;;;;16.44;100.00;98582.28;4965207;28;20204;-81
2022/09/13 07:50:09;;;;;;;10.17;8.90;;;;;;;16.58;100.00;98571.91;4968357;28;20195;-81
2022/09/13 07:52:39;;;;;;;11.10;8.80;;;;;;;16.53;100.00;98576.88;4983310;28;20199;-81
2022/09/13 07:55:08;;;;;;;10.03;8.97;;;;;;;16.27;100.00;98579.41;4985636;28;20203;-81
2022/09/13 07:57:37;;;;;;;10.97;8.60;;;;;;;16.36;100.00;98583.00;5045385;28;20193;-81
2022/09/13 08:00:11;;;;;;;11.83;8.70;;;;;;;16.47;100.00;98588.16;5056322;28;20231;-81
2022/09/13 08:02:40;;;;;;;10.77;8.23;;;;;;;16.40;100.00;98580.88;5026281;28;20241;-81
2022/09/13 08:05:13;;;;;;;9.57;8.57;;;;;;;16.53;100.00;98586.72;5028359;28;20202;-81
2022/09/13 08:07:42;;;;;;;9.50;8.03;;;;;;;16.66;100.00;98587.19;5024798;28;20202;-81
2022/09/13 08:10:14;;;;;;;10.40;8.50;;;;;;;16.84;100.00;98584.56;5025527;28;20233;-81
2022/09/13 08:12:42;;;;;;;11.03;8.13;;;;;;;16.91;100.00;98580.31;5018718;28;20263;-81
2022/09/13 08:15:13;;;;;;;11.63;8.43;;;;;;;16.90;100.00;98573.28;5020567;28;20252;-81
2022/09/13 08:17:41;;;;;;;10.13;8.07;;;;;;;17.08;100.00;98578.59;5015012;28;20236;-81
2022/09/13 08:20:10;;;;;;;14.27;7.67;;;;;;;17.01;100.00;98570.38;5041129;28;20200;-81
2022/09/13 08:22:39;;;;;;;11.87;7.97;;;;;;;17.09;100.00;98561.56;5089931;28;20214;-81
2022/09/13 08:25:08;;;;;;;10.10;7.90;;;;;;;17.16;100.00;98573.31;5084994;28;20245;-81
2022/09/13 08:27:36;;;;;;;12.17;7.67;;;;;;;17.21;100.00;98572.88;5086349;28;20233;-81
2022/09/13 08:30:08;;;;;;;9.60;7.73;;;;;;;17.31;100.00;98579.81;5020394;28;20194;-80
2022/09/13 08:32:40;;;;;;;9.07;7.87;;;;;;;17.29;100.00;98575.63;5026546;28;20240;-81
2022/09/13 08:35:09;;;;;;;9.07;7.57;;;;;;;17.50;100.00;98576.13;4975303;28;20711;-80
2022/09/13 08:37:37;;;;;;;8.53;7.30;;;;;;;17.54;100.00;98565.91;5019779;28;20235;-81
2022/09/13 08:40:07;;;;;;;9.17;7.70;;;;;;;17.60;100.00;98567.97;5024274;28;20380;-82
2022/09/13 08:42:54;;;;;;;8.63;7.80;;;;;;;17.54;100.00;98565.91;5019920;28;20342;-81
2022/09/13 08:45:22;;;;;;;12.30;8.53;;;;;;;17.71;100.00;98570.44;5022358;28;20540;-81
2022/09/13 08:47:56;;;;;;;11.10;7.93;;;;;;;17.80;100.00;98564.13;5036649;28;20196;-81
2022/09/13 08:50:30;;;;;;;8.77;7.83;;;;;;;17.92;100.00;98559.31;5090544;28;20191;-82
2022/09/13 08:53:12;;;;;;;8.37;7.47;;;;;;;18.24;100.00;98556.81;5090251;28;20228;-82
2022/09/13 08:55:49;;;;;;;10.23;7.70;;;;;;;18.22;100.00;98556.13;5088760;28;20184;-81
2022/09/13 08:58:31;;;;;;;8.80;7.50;;;;;;;18.59;100.00;98555.75;5090589;28;20190;-81
2022/09/13 09:01:06;;;;;;;9.80;7.80;;;;;;;18.47;100.00;98559.72;5090361;28;20198;-81
2022/09/13 09:03:46;;;;;;;11.00;8.43;;;;;;;18.62;100.00;98554.56;5091182;28;20219;-81
2022/09/13 09:06:17;;;;;;;11.13;8.03;;;;;;;18.60;100.00;98559.25;5094716;28;20191;-82
2022/09/13 09:08:50;;;;;;;11.83;8.30;;;;;;;18.76;100.00;98559.34;5089578;28;20287;-81
2022/09/13 09:11:29;;;;;;;8.83;7.93;;;;;;;19.08;100.00;98550.47;5042924;28;20252;-82
2022/09/13 09:14:03;;;;;;;9.13;8.17;;;;;;;19.14;100.00;98547.13;5084484;28;20196;-82
2022/09/13 09:16:39;;;;;;;8.37;7.47;;;;;;;19.14;100.00;98541.75;5092591;28;20235;-81
2022/09/13 09:19:20;;;;;;;12.77;7.50;;;;;;;19.54;100.00;98548.09;5097060;28;20187;-81
2022/09/13 09:21:51;;;;;;;9.73;8.20;;;;;;;19.32;100.00;98544.28;5092527;28;20651;-82
2022/09/13 09:24:22;;;;;;;8.77;7.70;;;;;;;19.66;100.00;98544.09;5042833;28;20247;-82
2022/09/13 09:26:51;;;;;;;9.33;7.77;;;;;;;20.09;100.00;98541.13;5093467;28;20187;-82
2022/09/13 09:29:24;;;;;;;11.87;7.80;;;;;;;20.02;100.00;98541.81;5095003;28;20192;-82
2022/09/13 09:32:08;;;;;;;9.50;7.57;;;;;;;20.47;100.00;98539.47;5089013;28;20227;-82
2022/09/13 09:34:52;;;;;;;8.73;7.30;;;;;;;20.77;100.00;98530.53;5093012;28;20195;-82
2022/09/13 09:37:23;;;;;;;8.23;7.17;;;;;;;20.66;100.00;98522.88;5094213;28;20200;-82
2022/09/13 09:39:53;;;;;;;8.77;6.83;;;;;;;20.95;100.00;98535.63;5088487;28;20187;-82
2022/09/13 09:42:25;;;;;;;8.80;7.33;;;;;;;21.03;100.00;98535.56;5090658;28;20245;-82
2022/09/13 09:44:57;;;;;;;7.87;6.13;;;;;;;21.30;100.00;98531.50;5082657;28;20666;-82
2022/09/13 09:47:29;;;;;;;8.37;6.47;;;;;;;21.18;100.00;98530.22;5090711;28;20254;-82
2022/09/13 09:50:10;;;;;;;7.20;6.33;;;;;;;21.46;100.00;98521.59;5084758;28;20192;-82
2022/09/13 09:52:49;;;;;;;7.03;6.33;;;;;;;21.08;100.00;98527.78;5042842;28;20194;-82
2022/09/13 09:55:26;;;;;;;7.10;6.40;;;;;;;21.39;100.00;98524.19;5043381;28;20222;-82
2022/09/13 09:57:57;;;;;;;7.97;5.97;;;;;;;21.37;100.00;98524.38;5086888;28;20240;-82
2022/09/13 10:00:28;;;;;;;7.13;6.23;;;;;;;21.22;100.00;98525.31;5087723;28;20217;-82
2022/09/13 10:03:00;;;;;;;9.40;6.17;;;;;;;21.42;100.00;98531.88;5091405;28;20211;-82
2022/09/13 10:05:31;;;;;;;11.37;7.43;;;;;;;21.10;100.00;98535.69;5080907;28;20215;-82
2022/09/13 10:08:01;;;;;;;10.37;6.83;;;;;;;20.62;100.00;98537.69;5090117;28;20192;-82
2022/09/13 10:10:40;;;;;;;8.47;6.77;;;;;;;20.78;100.00;98534.91;5088835;28;20229;-81
2022/09/13 10:13:15;;;;;;;9.77;7.20;;;;;;;20.60;100.00;98522.75;5086486;28;20217;-81
2022/09/13 10:15:54;;;;;;;7.23;6.53;;;;;;;21.17;100.00;98522.34;5092663;28;20248;-82
2022/09/13 10:18:24;;;;;;;9.73;6.70;;;;;;;21.87;100.00;98533.63;5091341;28;20210;-82
2022/09/13 10:21:23;;;;;;;7.67;6.87;;;;;;;22.06;100.00;98531.41;5090026;28;20257;-82
2022/09/13 10:24:17;;;;;;;10.80;6.97;;;;;;;21.50;100.00;98542.59;5088346;28;20240;-82
2022/09/13 10:26:46;;;;;;;9.30;7.97;;;;;;;21.09;100.00;98544.78;5050066;28;20204;-82
2022/09/13 10:29:17;;;;;;;8.80;7.83;;;;;;;20.78;100.00;98536.75;5048230;28;20193;-82
2022/09/13 10:31:52;;;;;;;10.63;7.93;;;;;;;21.18;100.00;98529.41;5040302;28;20209;-81
2022/09/13 10:34:25;;;;;;;11.30;7.53;;;;;;;22.00;100.00;98535.66;5050673;28;20200;-82
2022/09/13 10:37:01;;;;;;;8.17;7.27;;;;;;;21.98;100.00;98538.56;5046287;28;20274;-82
2022/09/13 10:39:32;;;;;;;9.33;7.03;;;;;;;22.43;100.00;98535.84;5043741;28;20220;-82
2022/09/13 10:42:02;;;;;;;8.47;7.67;;;;;;;22.03;100.00;98524.53;5052999;28;20200;-82
2022/09/13 10:44:37;;;;;;;8.70;7.33;;;;;;;22.18;100.00;98522.66;4999525;28;20244;-82
2022/09/13 10:47:12;;;;;;;8.60;7.80;;;;;;;21.89;100.00;98528.88;5030453;28;20201;-82
2022/09/13 10:49:46;;;;;;;7.70;6.47;;;;;;;22.99;100.00;98522.59;5030052;28;20231;-82
2022/09/13 10:52:31;;;;;;;9.07;6.87;;;;;;;23.17;100.00;98528.38;5032636;28;20198;-82
2022/09/13 10:55:30;;;;;;;7.72;6.93;;;;;;;23.06;100.00;98528.88;5012736;28;20194;-82
2022/09/13 10:58:19;;;;;;;8.73;6.15;;;;;;;23.53;100.00;98522.81;5006515;28;20214;-82
2022/09/13 11:01:39;;;;;;;7.82;6.13;;;;;;;23.70;100.00;98521.53;5002151;28;20198;-82
2022/09/13 11:04:44;;;;;;;8.75;6.93;;;;;;;23.99;100.00;98523.16;5012417;28;20224;-83
2022/09/13 11:07:30;;;;;;;7.00;6.30;;;;;;;24.46;100.00;98520.72;5013261;28;20199;-82
2022/09/13 11:10:07;;;;;;;9.75;6.82;;;;;;;24.62;100.00;98511.41;5058226;28;20250;-82
2022/09/13 11:12:41;;;;;;;7.10;6.40;;;;;;;24.95;100.00;98512.31;5065062;28;20192;-82
2022/09/13 11:15:21;;;;;;;6.85;6.25;;;;;;;24.72;100.00;98517.28;5065379;28;20241;-82
2022/09/13 11:18:16;;;;;;;7.25;6.05;;;;;;;24.94;100.00;98516.06;5071678;28;20188;-82
2022/09/13 11:20:54;;;;;;;8.18;5.78;;;;;;;25.18;100.00;98511.94;5071866;28;20271;-83
2022/09/13 11:23:49;;;;;;;7.80;5.57;;;;;;;25.00;100.00;98498.97;5019008;28;20192;-83
2022/09/13 11:26:34;;;;;;;6.13;5.47;;;;;;;25.32;100.00;98502.78;5067077;28;20196;-83
2022/09/13 11:29:21;;;;;;;8.25;5.97;;;;;;;25.39;100.00;98502.78;5070632;28;20196;-83
2022/09/13 11:32:01;;;;;;;7.47;6.50;;;;;;;25.25;100.00;98496.50;5064748;28;20227;-83
2022/09/13 11:34:42;;;;;;;6.85;6.18;;;;;;;25.28;100.00;98497.97;5066898;28;20200;-83
2022/09/13 11:37:26;;;;;;;7.90;7.10;;;;;;;25.33;100.00;98492.75;5063580;28;20199;-83
2022/09/13 11:40:09;;;;;;;12.00;7.68;;;;;;;24.97;100.00;98485.00;5058658;28;20207;-82
2022/09/13 11:42:49;;;;;;;12.00;6.90;;;;;;;25.06;100.00;98481.91;5065653;28;20503;-82
2022/09/13 11:45:27;;;;;;;12.25;7.28;;;;;;;25.05;100.00;98485.66;5067315;28;20262;-82
2022/09/13 11:48:32;;;;;;;9.43;6.93;;;;;;;25.36;100.00;98478.78;5063316;28;20211;-82
2022/09/13 11:51:07;;;;;;;12.23;8.90;;;;;;;25.10;100.00;98483.19;5054067;28;20196;-83
2022/09/13 11:53:53;;;;;;;10.85;8.32;;;;;;;25.14;100.00;98475.44;5078668;28;20243;-82
2022/09/13 11:56:28;;;;;;;8.93;8.02;;;;;;;24.94;100.00;98478.13;5090674;28;20203;-82